Time;durP1;ratioP1;P1;durP2;ratioP2;P2;SDS_P1;SDS_P2;PMS_P1;PMS_P2;Temp;Humidity;BMP_temperature;BMP_pressure;BME280_temperature;BME280_humidity;BME280_pressure;Samples;Min_cycle;Max_cycle;Signal;HPM_P1;HPM_P2
2021/08/17 00:00:26;;;;;;;;;;;13.90;82.90;;;;;;5095191;28;19908;-67
2021/08/17 00:02:53;;;;;;;;;;;14.00;83.40;;;;;;5094556;28;19915;-66
2021/08/17 00:05:23;;;;;;;;;;;14.00;82.60;;;;;;5094007;28;20355;-66
2021/08/17 00:07:49;;;;;;;;;;;14.10;82.80;;;;;;5093715;28;19908;-66
2021/08/17 00:10:16;;;;;;;;;;;14.10;82.80;;;;;;5076238;28;19919;-65
2021/08/17 00:12:43;;;;;;;;;;;14.10;82.00;;;;;;5094097;28;19919;-65
2021/08/17 00:15:10;;;;;;;;;;;14.10;81.60;;;;;;5094205;28;19908;-64
2021/08/17 00:17:36;;;;;;;;;;;14.10;82.40;;;;;;5093006;28;19969;-66
2021/08/17 00:20:04;;;;;;;;;;;14.10;81.60;;;;;;5093577;28;19912;-66
2021/08/17 00:22:31;;;;;;;;;;;14.10;81.80;;;;;;5093965;28;19908;-66
2021/08/17 00:24:57;;;;;;;;;;;14.30;81.50;;;;;;5093687;28;19908;-66
2021/08/17 00:27:24;;;;;;;;;;;14.40;81.70;;;;;;5093774;28;19946;-65
2021/08/17 00:29:51;;;;;;;;;;;14.60;80.90;;;;;;5093298;28;20295;-67
2021/08/17 00:32:18;;;;;;;;;;;14.60;80.40;;;;;;5093536;28;19909;-65
2021/08/17 00:34:44;;;;;;;;;;;14.60;79.10;;;;;;5093689;28;19966;-65
2021/08/17 00:37:12;;;;;;;;;;;14.60;79.80;;;;;;5093780;28;19916;-65
2021/08/17 00:39:39;;;;;;;;;;;14.70;79.50;;;;;;5093588;28;19935;-64
2021/08/17 00:42:07;;;;;;;;;;;14.70;79.00;;;;;;5093598;28;19988;-64
2021/08/17 00:44:34;;;;;;;;;;;14.60;79.10;;;;;;5093672;28;19949;-64
2021/08/17 00:47:01;;;;;;;;;;;14.60;79.80;;;;;;5092918;28;20020;-65
2021/08/17 00:49:31;;;;;;;;;;;14.70;79.60;;;;;;5093272;28;20350;-65
2021/08/17 00:52:16;;;;;;;;;;;14.70;78.40;;;;;;5075162;28;19912;-65
2021/08/17 00:54:43;;;;;;;;;;;14.70;78.90;;;;;;5093271;28;19917;-64
2021/08/17 00:57:13;;;;;;;;;;;14.80;78.40;;;;;;5093115;28;19912;-65
2021/08/17 00:59:40;;;;;;;;;;;14.80;77.60;;;;;;5092982;28;19917;-64
2021/08/17 01:02:07;;;;;;;;;;;14.80;77.70;;;;;;5092927;28;20053;-65
2021/08/17 01:04:34;;;;;;;;;;;14.90;78.60;;;;;;5093253;28;19915;-65
2021/08/17 01:07:02;;;;;;;;;;;14.80;78.00;;;;;;5092992;28;20019;-66
2021/08/17 01:09:29;;;;;;;;;;;14.80;78.90;;;;;;5092906;28;19962;-65
2021/08/17 01:11:55;;;;;;;;;;;15.10;77.30;;;;;;5093010;28;19954;-66
2021/08/17 01:14:22;;;;;;;;;;;15.50;76.10;;;;;;5093121;28;19915;-66
2021/08/17 01:16:49;;;;;;;;;;;15.70;76.50;;;;;;5092717;28;19923;-66
2021/08/17 01:19:19;;;;;;;;;;;16.10;74.30;;;;;;5092798;28;19908;-67
2021/08/17 01:21:46;;;;;;;;;;;16.10;74.00;;;;;;5074329;28;20342;-65
2021/08/17 01:24:13;;;;;;;;;;;16.50;72.90;;;;;;5092651;28;20283;-67
2021/08/17 01:26:40;;;;;;;;;;;16.50;73.10;;;;;;5092688;28;20015;-66
2021/08/17 01:29:09;;;;;;;;;;;16.60;73.00;;;;;;5092899;28;20270;-67
2021/08/17 01:31:35;;;;;;;;;;;16.80;71.90;;;;;;5091510;28;19995;-66
2021/08/17 01:34:02;;;;;;;;;;;17.00;71.20;;;;;;5092761;28;19908;-67
2021/08/17 01:36:28;;;;;;;;;;;16.70;73.20;;;;;;5092544;28;19969;-66
2021/08/17 01:38:55;;;;;;;;;;;16.70;72.20;;;;;;5092823;28;19912;-68
2021/08/17 01:41:22;;;;;;;;;;;16.50;72.20;;;;;;5092375;28;20306;-66
2021/08/17 01:43:49;;;;;;;;;;;16.30;72.80;;;;;;5092322;28;19908;-66
2021/08/17 01:46:16;;;;;;;;;;;16.10;73.10;;;;;;5092313;28;19916;-64
2021/08/17 01:48:43;;;;;;;;;;;15.90;72.70;;;;;;5092362;28;19915;-65
2021/08/17 01:51:10;;;;;;;;;;;15.90;73.00;;;;;;5074523;28;19912;-65
2021/08/17 01:53:37;;;;;;;;;;;15.90;73.40;;;;;;5092070;28;19943;-64
2021/08/17 01:56:11;;;;;;;;;;;16.10;73.20;;;;;;5092454;28;20006;-66
2021/08/17 01:58:37;;;;;;;;;;;16.00;73.00;;;;;;5092116;28;19916;-64
2021/08/17 02:01:08;;;;;;;;;;;15.90;73.80;;;;;;5092261;28;20367;-66
2021/08/17 02:03:35;;;;;;;;;;;16.00;72.40;;;;;;5091859;28;19973;-66
2021/08/17 02:06:02;;;;;;;;;;;15.90;73.00;;;;;;5092449;28;19931;-66
2021/08/17 02:08:28;;;;;;;;;;;16.00;73.40;;;;;;5091327;28;19957;-65
2021/08/17 02:10:55;;;;;;;;;;;15.90;73.10;;;;;;5092121;28;19908;-65
2021/08/17 02:13:23;;;;;;;;;;;15.80;73.00;;;;;;5092338;28;19962;-66
2021/08/17 02:15:51;;;;;;;;;;;15.90;72.40;;;;;;5091828;28;19919;-65
2021/08/17 02:18:17;;;;;;;;;;;16.00;72.20;;;;;;5091840;28;19986;-65
2021/08/17 02:20:44;;;;;;;;;;;15.90;72.20;;;;;;5092082;28;19916;-66
2021/08/17 02:23:12;;;;;;;;;;;15.80;72.10;;;;;;5091981;28;19912;-65
2021/08/17 02:25:38;;;;;;;;;;;15.80;72.40;;;;;;5092074;28;19908;-64
2021/08/17 02:28:05;;;;;;;;;;;15.80;72.80;;;;;;5092230;28;20012;-64
2021/08/17 02:30:32;;;;;;;;;;;15.90;70.70;;;;;;5092304;28;19908;-65
2021/08/17 02:32:59;;;;;;;;;;;15.90;71.70;;;;;;5091882;28;19974;-66
2021/08/17 02:35:25;;;;;;;;;;;16.00;70.90;;;;;;5091972;28;19915;-65
2021/08/17 02:37:52;;;;;;;;;;;16.00;71.20;;;;;;5091967;28;19916;-66
2021/08/17 02:40:19;;;;;;;;;;;16.00;70.90;;;;;;5091930;28;20003;-64
2021/08/17 02:42:45;;;;;;;;;;;16.00;71.50;;;;;;5093482;28;19915;-64
2021/08/17 02:45:12;;;;;;;;;;;16.00;70.90;;;;;;5095840;28;19915;-65
2021/08/17 02:47:39;;;;;;;;;;;16.00;70.80;;;;;;5077352;28;19963;-67
2021/08/17 02:50:07;;;;;;;;;;;16.00;69.40;;;;;;5095907;28;20231;-65
2021/08/17 02:52:34;;;;;;;;;;;16.00;69.20;;;;;;5095614;28;19915;-66
2021/08/17 02:55:01;;;;;;;;;;;16.00;70.40;;;;;;5095729;28;19912;-65
2021/08/17 02:57:28;;;;;;;;;;;16.10;70.60;;;;;;5095574;28;19916;-66
2021/08/17 02:59:54;;;;;;;;;;;16.10;70.50;;;;;;5095502;28;19935;-66
2021/08/17 03:02:21;;;;;;;;;;;16.30;69.60;;;;;;5095333;28;19908;-66
2021/08/17 03:04:48;;;;;;;;;;;16.20;70.20;;;;;;5095444;28;20432;-66
2021/08/17 03:07:14;;;;;;;;;;;16.10;69.70;;;;;;5095223;28;19916;-67
2021/08/17 03:09:41;;;;;;;;;;;16.10;69.10;;;;;;5095302;28;19914;-67
2021/08/17 03:12:08;;;;;;;;;;;16.10;70.00;;;;;;5095044;28;20002;-66
2021/08/17 03:14:34;;;;;;;;;;;16.30;71.60;;;;;;5095125;28;19916;-66
2021/08/17 03:17:01;;;;;;;;;;;16.50;69.50;;;;;;5094927;28;19919;-66
2021/08/17 03:19:28;;;;;;;;;;;16.40;70.00;;;;;;5095266;28;19908;-66
2021/08/17 03:21:54;;;;;;;;;;;16.40;69.50;;;;;;5095090;28;19938;-67
2021/08/17 03:24:21;;;;;;;;;;;16.40;68.90;;;;;;5077128;28;19919;-67
2021/08/17 03:26:48;;;;;;;;;;;16.40;68.50;;;;;;5095252;28;19941;-66
2021/08/17 03:29:14;;;;;;;;;;;16.20;67.60;;;;;;5095273;28;19920;-66
2021/08/17 03:31:41;;;;;;;;;;;16.10;68.30;;;;;;5094739;28;19985;-67
2021/08/17 03:34:08;;;;;;;;;;;16.10;68.60;;;;;;5094777;28;20366;-67
2021/08/17 03:36:34;;;;;;;;;;;16.10;69.70;;;;;;5094519;28;19919;-66
2021/08/17 03:39:01;;;;;;;;;;;16.20;69.20;;;;;;5094777;28;19951;-64
2021/08/17 03:41:28;;;;;;;;;;;16.40;67.70;;;;;;5094573;28;19909;-66
2021/08/17 03:43:55;;;;;;;;;;;16.40;67.60;;;;;;5094338;28;19947;-65
2021/08/17 03:46:21;;;;;;;;;;;16.40;66.90;;;;;;5094159;28;19923;-65
2021/08/17 03:48:48;;;;;;;;;;;16.30;68.00;;;;;;5094721;28;19912;-67
2021/08/17 03:51:15;;;;;;;;;;;16.40;67.50;;;;;;5094824;28;20388;-67
2021/08/17 03:53:41;;;;;;;;;;;16.40;67.80;;;;;;5093945;28;19999;-68
2021/08/17 03:56:08;;;;;;;;;;;16.40;67.80;;;;;;5094328;28;19958;-66
2021/08/17 03:58:35;;;;;;;;;;;16.30;67.30;;;;;;5094459;28;19920;-67
2021/08/17 04:01:01;;;;;;;;;;;16.30;68.50;;;;;;5094086;28;20279;-65
2021/08/17 04:03:28;;;;;;;;;;;16.40;69.80;;;;;;5094586;28;19909;-67
2021/08/17 04:05:54;;;;;;;;;;;16.30;69.50;;;;;;5094124;28;19999;-65
2021/08/17 04:08:21;;;;;;;;;;;16.30;69.80;;;;;;5094421;28;20248;-65
2021/08/17 04:10:48;;;;;;;;;;;16.30;69.30;;;;;;5094229;28;19931;-66
2021/08/17 04:13:14;;;;;;;;;;;16.40;69.00;;;;;;5094195;28;20006;-65
2021/08/17 04:15:41;;;;;;;;;;;16.40;69.20;;;;;;5093922;28;19908;-65
2021/08/17 04:18:08;;;;;;;;;;;16.30;71.00;;;;;;5094031;28;19923;-66
2021/08/17 04:20:35;;;;;;;;;;;16.20;72.70;;;;;;5094010;28;20284;-66
2021/08/17 04:23:02;;;;;;;;;;;16.20;71.80;;;;;;5075855;28;19941;-64
2021/08/17 04:25:29;;;;;;;;;;;16.20;72.40;;;;;;5093912;28;19962;-65
2021/08/17 04:27:56;;;;;;;;;;;16.20;71.30;;;;;;5093820;28;19995;-65
2021/08/17 04:30:23;;;;;;;;;;;16.20;71.70;;;;;;5093540;28;19915;-65
2021/08/17 04:32:49;;;;;;;;;;;16.20;71.90;;;;;;5093647;28;19955;-64
2021/08/17 04:35:19;;;;;;;;;;;16.30;71.50;;;;;;5093816;28;19919;-65
2021/08/17 04:37:46;;;;;;;;;;;16.20;70.70;;;;;;5093379;28;19962;-66
2021/08/17 04:40:13;;;;;;;;;;;16.10;71.20;;;;;;5093566;28;20431;-65
2021/08/17 04:42:40;;;;;;;;;;;16.10;71.40;;;;;;5093520;28;19909;-65
2021/08/17 04:45:08;;;;;;;;;;;16.00;70.40;;;;;;5093620;28;20033;-65
2021/08/17 04:47:34;;;;;;;;;;;16.00;71.00;;;;;;5093032;28;19924;-66
2021/08/17 04:50:01;;;;;;;;;;;16.00;71.10;;;;;;5093779;28;20328;-66
2021/08/17 04:52:27;;;;;;;;;;;16.00;69.40;;;;;;5093677;28;19963;-66
2021/08/17 04:54:54;;;;;;;;;;;16.00;70.10;;;;;;5093459;28;19932;-65
2021/08/17 04:57:21;;;;;;;;;;;16.00;71.10;;;;;;5093163;28;19951;-66
2021/08/17 04:59:47;;;;;;;;;;;15.90;71.10;;;;;;5093268;28;19915;-67
2021/08/17 05:02:14;;;;;;;;;;;15.90;70.40;;;;;;5092775;28;20425;-66
2021/08/17 05:04:41;;;;;;;;;;;15.90;69.90;;;;;;5093194;28;20309;-67
2021/08/17 05:07:07;;;;;;;;;;;15.90;70.00;;;;;;5092044;28;19908;-65
2021/08/17 05:09:34;;;;;;;;;;;15.90;69.70;;;;;;5093125;28;20100;-65
2021/08/17 05:12:01;;;;;;;;;;;15.80;69.30;;;;;;5093143;28;19914;-66
2021/08/17 05:14:27;;;;;;;;;;;15.90;69.20;;;;;;5093197;28;20041;-66
2021/08/17 05:16:54;;;;;;;;;;;15.80;70.60;;;;;;5092747;28;20091;-67
2021/08/17 05:19:21;;;;;;;;;;;15.80;71.60;;;;;;5093086;28;20003;-67
2021/08/17 05:21:47;;;;;;;;;;;15.90;70.60;;;;;;5092548;28;20354;-66
2021/08/17 05:24:14;;;;;;;;;;;15.80;71.30;;;;;;5092887;28;19960;-67
2021/08/17 05:26:40;;;;;;;;;;;15.80;71.40;;;;;;5092706;28;19912;-66
2021/08/17 05:29:07;;;;;;;;;;;15.70;71.50;;;;;;5093105;28;19908;-66
2021/08/17 05:31:34;;;;;;;;;;;15.70;70.90;;;;;;5092492;28;20278;-66
2021/08/17 05:34:00;;;;;;;;;;;15.70;71.50;;;;;;5092848;28;19908;-66
2021/08/17 05:36:27;;;;;;;;;;;15.70;72.50;;;;;;5092454;28;19908;-66
2021/08/17 05:38:54;;;;;;;;;;;15.70;72.50;;;;;;5092575;28;19922;-66
2021/08/17 05:41:20;;;;;;;;;;;15.70;72.40;;;;;;5092675;28;19947;-65
2021/08/17 05:43:47;;;;;;;;;;;15.70;72.50;;;;;;5074649;28;19915;-66
2021/08/17 05:46:14;;;;;;;;;;;15.70;72.40;;;;;;5092140;28;19959;-66
2021/08/17 05:48:41;;;;;;;;;;;15.70;72.80;;;;;;5092768;28;19908;-66
2021/08/17 05:51:09;;;;;;;;;;;15.60;72.90;;;;;;5092381;28;19908;-66
2021/08/17 05:53:36;;;;;;;;;;;15.60;73.80;;;;;;5092156;28;19961;-65
2021/08/17 05:56:03;;;;;;;;;;;15.60;74.40;;;;;;5092134;28;19908;-65
2021/08/17 05:58:30;;;;;;;;;;;15.60;74.10;;;;;;5092283;28;20430;-66
2021/08/17 06:00:57;;;;;;;;;;;15.60;74.40;;;;;;5092229;28;20342;-66
2021/08/17 06:03:23;;;;;;;;;;;15.60;75.00;;;;;;5092223;28;19908;-66
2021/08/17 06:05:51;;;;;;;;;;;15.60;75.00;;;;;;5091896;28;19912;-65
2021/08/17 06:08:17;;;;;;;;;;;15.50;75.10;;;;;;5092196;28;19908;-66
2021/08/17 06:10:44;;;;;;;;;;;15.50;75.50;;;;;;5092215;28;19919;-67
2021/08/17 06:13:11;;;;;;;;;;;15.50;76.40;;;;;;5092426;28;20422;-67
2021/08/17 06:15:37;;;;;;;;;;;15.50;75.90;;;;;;5091776;28;19908;-67
2021/08/17 06:18:05;;;;;;;;;;;15.50;76.60;;;;;;5094260;28;19923;-66
2021/08/17 06:20:32;;;;;;;;;;;15.40;76.30;;;;;;5096328;28;19947;-65
2021/08/17 06:22:58;;;;;;;;;;;15.30;76.10;;;;;;5096096;28;19909;-66
2021/08/17 06:25:26;;;;;;;;;;;15.30;76.30;;;;;;5096434;28;20027;-66
2021/08/17 06:27:52;;;;;;;;;;;15.30;76.80;;;;;;5095960;28;19908;-66
2021/08/17 06:30:19;;;;;;;;;;;15.30;76.40;;;;;;5096407;28;19990;-65
2021/08/17 06:32:46;;;;;;;;;;;15.20;76.50;;;;;;5096316;28;20386;-66
2021/08/17 06:35:12;;;;;;;;;;;15.20;76.70;;;;;;5096284;28;19908;-66
2021/08/17 06:37:39;;;;;;;;;;;15.10;76.50;;;;;;5095880;28;20278;-65
2021/08/17 06:40:06;;;;;;;;;;;15.10;77.10;;;;;;5096203;28;19916;-66
2021/08/17 06:42:33;;;;;;;;;;;15.10;77.10;;;;;;5095947;28;20286;-66
2021/08/17 06:45:00;;;;;;;;;;;15.00;76.70;;;;;;5095679;28;20252;-67
2021/08/17 06:47:26;;;;;;;;;;;15.00;77.10;;;;;;5095559;28;19920;-66
2021/08/17 06:49:53;;;;;;;;;;;15.00;77.90;;;;;;5095641;28;19908;-68
2021/08/17 06:52:19;;;;;;;;;;;15.00;78.10;;;;;;5093585;28;19909;-66
2021/08/17 06:54:46;;;;;;;;;;;14.90;77.80;;;;;;5093489;28;19916;-67
2021/08/17 06:57:13;;;;;;;;;;;14.90;78.20;;;;;;5093289;28;19959;-66
2021/08/17 06:59:39;;;;;;;;;;;14.80;78.50;;;;;;5093406;28;19966;-66
2021/08/17 07:02:06;;;;;;;;;;;14.80;79.30;;;;;;5093525;28;19916;-66
2021/08/17 07:04:33;;;;;;;;;;;14.80;79.70;;;;;;5093103;28;20027;-66
2021/08/17 07:07:00;;;;;;;;;;;14.80;79.40;;;;;;5093395;28;19961;-67
2021/08/17 07:09:27;;;;;;;;;;;14.70;79.70;;;;;;5093522;28;19935;-67
2021/08/17 07:11:54;;;;;;;;;;;14.70;80.60;;;;;;5093169;28;19934;-67
2021/08/17 07:14:20;;;;;;;;;;;14.70;80.70;;;;;;5093264;28;20408;-66
2021/08/17 07:16:47;;;;;;;;;;;14.70;80.90;;;;;;5093052;28;19912;-67
2021/08/17 07:19:14;;;;;;;;;;;14.70;81.40;;;;;;5093207;28;19912;-66
2021/08/17 07:21:40;;;;;;;;;;;14.70;81.70;;;;;;5093057;28;19908;-66
2021/08/17 07:24:07;;;;;;;;;;;14.60;81.10;;;;;;5093174;28;19916;-67
2021/08/17 07:26:34;;;;;;;;;;;14.60;81.70;;;;;;5092904;28;19981;-65
2021/08/17 07:29:00;;;;;;;;;;;14.50;82.50;;;;;;5091831;28;20419;-67
2021/08/17 07:31:27;;;;;;;;;;;14.50;82.60;;;;;;5092555;28;20367;-66
2021/08/17 07:33:54;;;;;;;;;;;14.40;83.00;;;;;;5092824;28;19912;-67
2021/08/17 07:36:20;;;;;;;;;;;14.40;84.00;;;;;;5093101;28;19997;-67
2021/08/17 07:38:47;;;;;;;;;;;14.40;83.50;;;;;;5092658;28;19923;-69
2021/08/17 07:41:14;;;;;;;;;;;14.40;83.60;;;;;;5092824;28;19908;-66
2021/08/17 07:43:40;;;;;;;;;;;14.30;83.80;;;;;;5092041;28;19915;-66
2021/08/17 07:46:07;;;;;;;;;;;14.30;83.50;;;;;;5092403;28;20422;-66
2021/08/17 07:48:34;;;;;;;;;;;14.30;84.40;;;;;;5092422;28;19922;-66
2021/08/17 07:51:00;;;;;;;;;;;14.30;84.00;;;;;;5092936;28;19970;-65
2021/08/17 07:53:27;;;;;;;;;;;14.30;84.10;;;;;;5092563;28;19919;-65
2021/08/17 07:55:53;;;;;;;;;;;14.30;84.70;;;;;;5092495;28;19961;-65
2021/08/17 07:58:20;;;;;;;;;;;14.20;85.00;;;;;;5091834;28;19927;-65
2021/08/17 08:00:47;;;;;;;;;;;14.20;85.30;;;;;;5092061;28;19908;-65
2021/08/17 08:03:13;;;;;;;;;;;14.20;85.60;;;;;;5092346;28;19908;-67
2021/08/17 08:05:40;;;;;;;;;;;14.20;86.10;;;;;;5092270;28;19913;-65
2021/08/17 08:08:07;;;;;;;;;;;14.10;86.30;;;;;;5092142;28;19912;-65
2021/08/17 08:10:34;;;;;;;;;;;14.10;86.70;;;;;;5092119;28;19949;-66
2021/08/17 08:13:00;;;;;;;;;;;14.10;87.20;;;;;;5091922;28;20362;-65
2021/08/17 08:15:27;;;;;;;;;;;14.10;87.50;;;;;;5091977;28;19984;-66
2021/08/17 08:17:57;;;;;;;;;;;14.10;87.70;;;;;;5091831;28;19942;-66
2021/08/17 08:20:23;;;;;;;;;;;14.10;88.00;;;;;;5092156;28;19939;-66
2021/08/17 08:22:50;;;;;;;;;;;14.10;88.20;;;;;;5091484;28;19947;-66
2021/08/17 08:25:17;;;;;;;;;;;14.10;88.50;;;;;;5091850;28;20083;-66
2021/08/17 08:27:44;;;;;;;;;;;14.10;88.80;;;;;;5091812;28;19909;-66
2021/08/17 08:30:11;;;;;;;;;;;14.10;89.10;;;;;;5091623;28;19912;-65
2021/08/17 08:32:38;;;;;;;;;;;14.00;89.60;;;;;;5091867;28;19912;-66
2021/08/17 08:35:05;;;;;;;;;;;14.10;89.80;;;;;;5091590;28;19916;-65
2021/08/17 08:37:32;;;;;;;;;;;14.10;89.40;;;;;;5088441;28;19924;-65
2021/08/17 08:39:59;;;;;;;;;;;14.10;89.50;;;;;;5090116;28;19912;-65
2021/08/17 08:42:26;;;;;;;;;;;14.10;89.70;;;;;;5091468;28;19912;-65
2021/08/17 08:44:53;;;;;;;;;;;14.00;89.80;;;;;;5091341;28;19934;-66
2021/08/17 08:47:20;;;;;;;;;;;14.00;90.00;;;;;;5091314;28;19924;-65
2021/08/17 08:49:51;;;;;;;;;;;14.00;90.30;;;;;;5091095;28;19966;-66
2021/08/17 08:52:18;;;;;;;;;;;13.90;90.50;;;;;;5091502;28;19915;-66
2021/08/17 08:54:44;;;;;;;;;;;13.90;90.70;;;;;;5091639;28;19908;-65
2021/08/17 08:57:11;;;;;;;;;;;13.80;90.90;;;;;;5091584;28;19954;-65
2021/08/17 08:59:39;;;;;;;;;;;13.80;91.00;;;;;;5091329;28;19916;-65
2021/08/17 09:02:11;;;;;;;;;;;13.80;91.10;;;;;;5091074;28;19915;-66
2021/08/17 09:04:38;;;;;;;;;;;13.80;91.30;;;;;;5091150;28;19908;-66
2021/08/17 09:07:06;;;;;;;;;;;13.80;91.50;;;;;;5093188;28;19912;-66
2021/08/17 09:09:32;;;;;;;;;;;13.70;91.50;;;;;;5092937;28;19908;-65
2021/08/17 09:12:00;;;;;;;;;;;13.80;91.60;;;;;;5092994;28;20347;-66
2021/08/17 09:14:33;;;;;;;;;;;13.80;91.50;;;;;;5092879;28;19908;-66
2021/08/17 09:17:03;;;;;;;;;;;13.80;91.40;;;;;;5092918;28;19954;-67
2021/08/17 09:19:41;;;;;;;;;;;13.80;91.30;;;;;;5092929;28;20382;-66
2021/08/17 09:22:19;;;;;;;;;;;13.70;91.20;;;;;;5092899;28;19908;-66
2021/08/17 09:24:50;;;;;;;;;;;13.70;91.00;;;;;;5074916;28;20290;-66
2021/08/17 09:27:17;;;;;;;;;;;13.80;91.00;;;;;;5093002;28;19912;-67
2021/08/17 09:29:45;;;;;;;;;;;13.70;91.00;;;;;;5092553;28;20003;-67
2021/08/17 09:32:19;;;;;;;;;;;13.70;90.90;;;;;;5091669;28;20006;-65
2021/08/17 09:34:48;;;;;;;;;;;13.80;90.80;;;;;;5092816;28;19914;-67
2021/08/17 09:37:14;;;;;;;;;;;13.80;90.70;;;;;;5092521;28;19920;-66
2021/08/17 09:39:45;;;;;;;;;;;13.80;90.60;;;;;;5092344;28;20359;-65
2021/08/17 09:42:16;;;;;;;;;;;13.80;90.50;;;;;;5092692;28;20003;-65
2021/08/17 09:44:43;;;;;;;;;;;13.80;90.60;;;;;;5092584;28;19909;-65
2021/08/17 09:47:10;;;;;;;;;;;13.80;90.50;;;;;;5092421;28;19920;-66
2021/08/17 09:49:37;;;;;;;;;;;13.80;90.30;;;;;;5092208;28;19915;-66
2021/08/17 09:52:11;;;;;;;;;;;13.70;90.30;;;;;;5091893;28;19951;-65
2021/08/17 09:54:39;;;;;;;;;;;13.80;90.30;;;;;;5092555;28;19908;-65
2021/08/17 09:57:06;;;;;;;;;;;13.80;90.30;;;;;;5092291;28;19912;-66
2021/08/17 09:59:34;;;;;;;;;;;13.80;90.10;;;;;;5092225;28;20338;-66
2021/08/17 10:02:01;;;;;;;;;;;13.80;90.00;;;;;;5092349;28;19977;-67
2021/08/17 10:04:28;;;;;;;;;;;13.80;89.80;;;;;;5092418;28;20033;-66
2021/08/17 10:06:55;;;;;;;;;;;13.80;89.90;;;;;;5092799;28;19912;-66
2021/08/17 10:09:23;;;;;;;;;;;13.80;89.70;;;;;;5088401;28;19976;-67
2021/08/17 10:11:50;;;;;;;;;;;13.80;89.70;;;;;;5071834;28;19917;-67
2021/08/17 10:14:17;;;;;;;;;;;13.80;89.70;;;;;;5072062;28;19916;-67
2021/08/17 10:16:44;;;;;;;;;;;13.90;89.80;;;;;;5071921;28;19978;-67
2021/08/17 10:19:13;;;;;;;;;;;13.80;89.80;;;;;;5071955;28;19912;-65
2021/08/17 10:21:41;;;;;;;;;;;13.90;90.00;;;;;;5071730;28;19908;-66
2021/08/17 10:24:43;;;;;;;;;;;13.80;90.10;;;;;;5071326;28;19909;-66
2021/08/17 10:27:18;;;;;;;;;;;13.80;90.30;;;;;;5030079;28;19916;-67
2021/08/17 10:29:55;;;;;;;;;;;13.80;90.60;;;;;;5065875;28;19912;-67
2021/08/17 10:32:40;;;;;;;;;;;13.80;90.50;;;;;;5071993;28;19999;-66
2021/08/17 10:35:30;;;;;;;;;;;13.80;90.50;;;;;;5071879;28;19909;-66
2021/08/17 10:38:12;;;;;;;;;;;13.80;90.80;;;;;;5071851;28;19939;-67
2021/08/17 10:40:51;;;;;;;;;;;13.80;91.00;;;;;;5071544;28;19915;-67
2021/08/17 10:43:21;;;;;;;;;;;13.70;91.20;;;;;;5071707;28;19912;-66
2021/08/17 10:45:54;;;;;;;;;;;13.70;91.20;;;;;;5071518;28;19908;-67
2021/08/17 10:48:39;;;;;;;;;;;13.70;91.50;;;;;;5071751;28;20325;-66
2021/08/17 10:51:08;;;;;;;;;;;13.60;91.70;;;;;;5072190;28;20283;-66
2021/08/17 10:53:36;;;;;;;;;;;13.60;91.90;;;;;;5071146;28;20354;-67
2021/08/17 10:56:15;;;;;;;;;;;13.60;91.80;;;;;;5071682;28;20014;-67
2021/08/17 10:58:43;;;;;;;;;;;13.50;92.20;;;;;;5071529;28;20279;-66
2021/08/17 11:01:09;;;;;;;;;;;13.50;92.30;;;;;;5071642;28;19909;-66
2021/08/17 11:03:37;;;;;;;;;;;13.40;92.50;;;;;;5072449;28;20388;-66
2021/08/17 11:06:04;;;;;;;;;;;13.40;92.60;;;;;;5075492;28;19912;-66
2021/08/17 11:08:31;;;;;;;;;;;13.30;92.60;;;;;;5074578;28;20405;-66
2021/08/17 11:10:58;;;;;;;;;;;13.30;92.80;;;;;;5075381;28;20676;-66
2021/08/17 11:13:26;;;;;;;;;;;13.40;92.90;;;;;;5075086;28;19938;-66
2021/08/17 11:16:05;;;;;;;;;;;13.40;93.00;;;;;;5075076;28;19908;-66
2021/08/17 11:18:48;;;;;;;;;;;13.40;93.20;;;;;;5074989;28;19974;-66
2021/08/17 11:21:28;;;;;;;;;;;13.40;93.30;;;;;;5075061;28;19912;-66
2021/08/17 11:24:13;;;;;;;;;;;13.40;93.50;;;;;;5074357;28;19912;-65
2021/08/17 11:26:41;;;;;;;;;;;13.30;93.70;;;;;;5074754;28;20004;-66
2021/08/17 11:29:07;;;;;;;;;;;13.30;93.90;;;;;;5056992;28;19962;-66
2021/08/17 11:31:44;;;;;;;;;;;13.20;94.10;;;;;;5074867;28;20007;-66
2021/08/17 11:34:24;;;;;;;;;;;13.20;94.20;;;;;;5074952;28;19909;-66
2021/08/17 11:36:51;;;;;;;;;;;13.00;94.50;;;;;;5074566;28;20395;-66
2021/08/17 11:39:23;;;;;;;;;;;13.00;94.70;;;;;;5074078;28;20300;-66
2021/08/17 11:41:50;;;;;;;;;;;12.90;94.80;;;;;;5074440;28;19912;-67
2021/08/17 11:44:17;;;;;;;;;;;12.90;94.70;;;;;;5074114;28;20319;-68
2021/08/17 11:46:43;;;;;;;;;;;12.80;94.70;;;;;;5074524;28;19929;-66
2021/08/17 11:49:26;;;;;;;;;;;12.80;94.60;;;;;;5074660;28;20252;-67
2021/08/17 11:51:59;;;;;;;;;;;12.80;94.60;;;;;;5074321;28;20252;-66
2021/08/17 11:54:26;;;;;;;;;;;12.70;94.40;;;;;;5074328;28;20351;-65
2021/08/17 11:56:59;;;;;;;;;;;12.70;94.30;;;;;;5074456;28;20347;-66
2021/08/17 11:59:36;;;;;;;;;;;12.70;94.30;;;;;;5074394;28;19912;-66
2021/08/17 12:02:04;;;;;;;;;;;12.60;94.20;;;;;;5074282;28;19909;-66
2021/08/17 12:04:30;;;;;;;;;;;12.60;94.40;;;;;;5074224;28;19909;-66
2021/08/17 12:07:07;;;;;;;;;;;12.60;94.40;;;;;;5074281;28;19912;-67
2021/08/17 12:09:38;;;;;;;;;;;12.60;94.30;;;;;;5074172;28;20363;-67
2021/08/17 12:12:05;;;;;;;;;;;12.50;94.30;;;;;;5074070;28;20367;-67
2021/08/17 12:14:32;;;;;;;;;;;12.50;94.30;;;;;;5074014;28;19931;-65
2021/08/17 12:16:59;;;;;;;;;;;12.50;94.20;;;;;;5073811;28;19916;-66
2021/08/17 12:19:25;;;;;;;;;;;12.50;94.30;;;;;;5074131;28;19912;-66
2021/08/17 12:21:52;;;;;;;;;;;12.50;94.10;;;;;;5074307;28;19909;-66
2021/08/17 12:24:22;;;;;;;;;;;12.50;94.10;;;;;;5075852;28;20355;-66
2021/08/17 12:26:54;;;;;;;;;;;12.40;93.90;;;;;;5074698;28;19909;-66
2021/08/17 12:29:24;;;;;;;;;;;12.40;93.70;;;;;;5074195;28;20003;-66
2021/08/17 12:31:54;;;;;;;;;;;12.40;93.60;;;;;;5074414;28;19960;-66
2021/08/17 12:34:23;;;;;;;;;;;12.30;93.90;;;;;;5073868;28;19916;-66
2021/08/17 12:36:53;;;;;;;;;;;12.30;93.70;;;;;;5073752;28;19948;-67
2021/08/17 12:39:21;;;;;;;;;;;12.30;93.70;;;;;;5073563;28;19913;-65
2021/08/17 12:41:51;;;;;;;;;;;12.20;93.70;;;;;;5073232;28;19995;-67
2021/08/17 12:44:19;;;;;;;;;;;12.20;93.70;;;;;;5073226;28;19969;-65
2021/08/17 12:46:59;;;;;;;;;;;12.20;93.80;;;;;;5073215;28;20387;-64
2021/08/17 12:49:36;;;;;;;;;;;12.20;93.60;;;;;;5073379;28;19915;-65
2021/08/17 12:52:21;;;;;;;;;;;12.10;93.60;;;;;;5073180;28;19909;-65
2021/08/17 12:54:48;;;;;;;;;;;12.10;93.70;;;;;;5073173;28;19912;-67
2021/08/17 12:57:22;;;;;;;;;;;12.00;93.70;;;;;;5073096;28;20023;-65
2021/08/17 12:59:49;;;;;;;;;;;12.00;93.80;;;;;;5073102;28;19920;-65
2021/08/17 13:02:16;;;;;;;;;;;12.00;93.70;;;;;;5072905;28;20324;-66
2021/08/17 13:04:43;;;;;;;;;;;12.00;93.80;;;;;;5072971;28;19908;-65
2021/08/17 13:07:10;;;;;;;;;;;12.00;93.90;;;;;;5073125;28;19955;-65
2021/08/17 13:09:36;;;;;;;;;;;12.00;94.10;;;;;;5072571;28;20000;-65
2021/08/17 13:12:03;;;;;;;;;;;11.90;93.90;;;;;;5072679;28;19908;-67
2021/08/17 13:14:30;;;;;;;;;;;11.90;94.00;;;;;;5072327;28;19908;-67
2021/08/17 13:16:57;;;;;;;;;;;11.90;94.00;;;;;;5072388;28;20372;-66
2021/08/17 13:19:27;;;;;;;;;;;11.90;94.00;;;;;;5072813;28;19936;-66
2021/08/17 13:21:54;;;;;;;;;;;11.90;94.20;;;;;;5072664;28;19909;-67
2021/08/17 13:24:21;;;;;;;;;;;11.90;94.10;;;;;;5072530;28;20436;-67
2021/08/17 13:26:47;;;;;;;;;;;11.80;94.10;;;;;;5072004;28;19991;-67
2021/08/17 13:29:14;;;;;;;;;;;11.80;94.40;;;;;;5072258;28;19999;-66
2021/08/17 13:31:41;;;;;;;;;;;11.80;94.50;;;;;;5072239;28;19909;-67
2021/08/17 13:34:07;;;;;;;;;;;11.70;94.60;;;;;;5072657;28;20359;-67
2021/08/17 13:36:34;;;;;;;;;;;11.70;94.70;;;;;;5072629;28;20286;-67
2021/08/17 13:39:01;;;;;;;;;;;11.70;94.70;;;;;;5072468;28;20026;-66
2021/08/17 13:41:27;;;;;;;;;;;11.70;94.80;;;;;;5072401;28;19947;-66
2021/08/17 13:43:54;;;;;;;;;;;11.60;95.00;;;;;;5072003;28;20321;-67
2021/08/17 13:46:21;;;;;;;;;;;11.60;94.80;;;;;;5072126;28;19931;-67
2021/08/17 13:48:47;;;;;;;;;;;11.60;94.80;;;;;;5072476;28;19909;-66
2021/08/17 13:51:14;;;;;;;;;;;11.50;95.00;;;;;;5072276;28;20332;-66
2021/08/17 13:53:40;;;;;;;;;;;11.50;94.80;;;;;;5072005;28;19958;-66
2021/08/17 13:56:07;;;;;;;;;;;11.40;94.70;;;;;;5072169;28;19909;-66
2021/08/17 13:58:34;;;;;;;;;;;11.40;94.80;;;;;;5072245;28;19939;-65
2021/08/17 14:01:00;;;;;;;;;;;11.50;94.90;;;;;;5072043;28;20256;-67
2021/08/17 14:03:27;;;;;;;;;;;11.50;94.60;;;;;;5072144;28;19915;-66
2021/08/17 14:05:54;;;;;;;;;;;11.40;94.40;;;;;;5072027;28;19991;-66
2021/08/17 14:08:20;;;;;;;;;;;11.40;94.40;;;;;;5072186;28;19941;-66
2021/08/17 14:10:47;;;;;;;;;;;11.40;94.30;;;;;;5072142;28;19909;-65
2021/08/17 14:13:14;;;;;;;;;;;11.40;94.50;;;;;;5071910;28;19916;-66
2021/08/17 14:15:40;;;;;;;;;;;11.40;94.40;;;;;;5071818;28;19909;-65
2021/08/17 14:18:07;;;;;;;;;;;11.30;94.30;;;;;;5072058;28;19923;-65
2021/08/17 14:20:34;;;;;;;;;;;11.30;94.20;;;;;;5072118;28;19977;-65